My Meet Scores
Samantha Ciszek, Aspire Gymnastics Academy - MyMeetScores.com
Top100 | Top Teams | Upcoming Meets | Completed Meets | Latest | Add Scores | Help| Support | Bookmark and Share

Samantha Ciszek, Aspire Gymnastics Academy
Personal Bests
LevelVault BarsBeamFloorAA
39.7509.800 9.7009.60038.300
49.5509.850 9.7009.20038.075
59.6009.175 9.6009.22537.175
Scores on America's Top 100as of 04.02.2020
Year Level Vault Bars Beam Floor AA
2019 49.850

Click here to view our exclusive Top 100 Collection
Meet Scores
Date Meet Team Session Level Division Vault Bars Beam Floor AA
2020-02-14 Big Classic Aspire Gymnastics Academy 1A 5 Junior A 9.600 7 8.375 64 8.950 32T 8.925 34T 35.850 33T
2020-01-24 Uga Invitational Aspire Gymnastics Academy B1 5 Ch C 9.400 1 9.175 1 9.375 1 9.125 6 37.075 1
2020-01-17 2020 Bravo Classic Aspire Gymnastics Academy 4A 5 Jr 9.475 4T 9.075 9 8.650 15T 9.150 9T 36.350 8
2019-12-20 Aspire Classic - 2019 Aspire Gymnastics Academy 3A 5 Middle 9.350 3T 9.100 8T 9.600 1T 8.800 11T 36.850 4
2019-12-13 2019 St Nick Aspire Gymnastics Academy 7A 5 JrB 9.400 1 9.075 3 9.475 1 9.225 2 37.175 1
2019-03-22 Illinois Gymnastics State Championships Aspire Gymnastics Academy 4 4 JR A 9.500 2 9.850 1 9.550 5 9.175 8 38.075 2
2019-03-08 Lucky Invite Aspire Gymnastics Academy A09 4 Jr B 9.550 1T 9.575 2 9.525 1 9.200 3T 37.850 2
2019-02-23 Kinetic Classic 2019 Aspire Gymnastics Academy 1 4 Middle 9.025 2T 9.700 2 9.225 11 8.725 23 36.675 3
2019-02-15 Big ClassicBIG CLASSIC Aspire Gymnastics Academy 5A 4 Child C 9.150 3T 9.375 2 9.700 1 8.950 5 37.175 3
2019-01-25 UGA Invitational Aspire Gymnastics Academy B06 4 Jr A 8.950 3T 9.725 1 9.550 1T 9.100 2T 37.325 1
2019-01-18 2019 Bravo Classic Aspire Gymnastics Academy 3B 4 Jr 9.425 3T 9.325 4T 9.300 4 8.850 9T 36.900 5
2018-12-14 2018 Aspire Classic Aspire Gymnastics Academy 5A 4 Middle 9.200 5T 9.225 6 9.250 12 9.200 7 36.875 5
2018-12-07 St. Nick Invite 2018 Aspire Gymnastics Academy 5A 4 SrA 9.400 4T 9.250 7T 8.950 9 9.050 10 36.650 5T
2018-11-17 Paul Hamm Thanksgiving Class WOMENS Aspire Gymnastics Academy 6 4 Middle 9.300 3 9.425 5 9.200 6T 9.150 9T 37.075 3
2018-05-03 Illinois USA Gymnastics Level 3 State Championships Aspire Gymnastics Academy 2 3 Jr C 9.750 1 9.525 4 9.500 2 9.525 1T 38.300 1
2018-02-16 Big Classic Aspire Gymnastics Academy 1B 3 Child B 9.150 8 9.700 1 9.275 7* 9.425 3T 37.550 4T
2018-01-26 2018 UGA Classic Aspire Gymnastics Academy A8 3 Sr A 9.200 4 9.450 4 9.700 2 9.575 1T 37.925 2T
2018-01-19 2018 Bravo Classic Aspire Gymnastics Academy 7B 3 Sr 9.500 1 9.775 1 9.375 2T 9.550 2 38.200 1
2017-12-15 2017 Aspire Classic Aspire Gymnastics Academy 11A 3 Older 9.000 23 9.800 1 9.400 5T 9.600 7 37.800 6
2017-12-08 St. Nick Invite Aspire Gymnastics Academy 6A 3 SrA 9.550 3 9.475 3 8.750 7T 9.125 6 36.900 3
2017-11-16 Paul Hamm Thanksgiving Classic - Women Aspire Gymnastics Academy 1 3 Older 9.500 1 9.750 2 8.750 7T 9.250 3 37.250 2
2017-02-24 Kinetic Classic Aspire Gymnastics Academy 4,5,6,7 3 All Ages 8.950 81T 8.350 87T 8.700 64T 8.750 76T 34.750 79
2017-02-18 2017 Great Western Invitational Women's Aspire Gymnastics Academy 1 3 Pony 9.350 3 9.200 6T 8.900 5 8.850 10 36.300 6
2017-01-27 2017 UGA Invitational Aspire Gymnastics Academy B6 3 Jr B 8.900 8 9.000 8T 9.050 7T 8.700 12T 35.650 8
2017-01-20 2017 Bravo Classic Aspire Gymnastics Academy 11B 3 8yrs 9.150 10T 8.650 17 8.825 8 8.300 20 34.925 15
2016-12-16 2016 Aspire Classic Aspire Gymnastics Academy 12 3 Middle 8.000 21 8.725 12 7.850 16 8.175 20 32.750 18
2016-12-09 St. Nick Invite Aspire Gymnastics Academy 6 3 All 8.650 31 9.250 3 8.800 11T 8.100 29 34.800 22
2016-11-19 Paul Hamm Thanksgiving Classic - 2016 Girls Aspire Gymnastics Academy 6 3 8-9 yrs 8.850 23T 8.450 29T 8.375 22 7.450 40T 33.125 32
Get your scores on
a t-shirt, pin, or hoodie

www.lazysuits.com